createdAt,value
2023-05-31T00:01:02.168Z,15.35
2023-05-31T00:03:28.828Z,15.55
2023-05-31T00:05:55.350Z,15.60
2023-05-31T00:08:21.843Z,15.75
2023-05-31T00:10:48.360Z,16.42
2023-05-31T00:13:15.043Z,15.98
2023-05-31T00:15:41.805Z,16.27
2023-05-31T00:18:08.291Z,16.08
2023-05-31T00:20:34.770Z,16.92
2023-05-31T00:23:01.396Z,17.95
2023-05-31T00:25:27.842Z,16.95
2023-05-31T00:27:56.136Z,17.15
2023-05-31T00:30:22.550Z,18.35
2023-05-31T00:32:49.154Z,17.80
2023-05-31T00:35:15.732Z,15.95
2023-05-31T00:37:42.176Z,16.98
2023-05-31T00:40:09.252Z,17.10
2023-05-31T00:42:35.990Z,17.30
2023-05-31T00:45:02.583Z,18.00
2023-05-31T00:47:29.764Z,18.02
2023-05-31T00:49:57.046Z,19.25
2023-05-31T00:52:24.279Z,18.52
2023-05-31T00:54:51.669Z,18.60
2023-05-31T00:57:18.376Z,19.30
2023-05-31T00:59:45.531Z,19.00
2023-05-31T01:02:15.691Z,18.58
2023-05-31T01:04:42.180Z,18.52
2023-05-31T01:07:09.396Z,17.75
2023-05-31T01:09:38.041Z,17.80
2023-05-31T01:12:32.357Z,18.58
2023-05-31T01:15:11.067Z,19.08
2023-05-31T01:17:46.044Z,20.48
2023-05-31T01:20:16.395Z,19.58
2023-05-31T01:23:07.917Z,20.02
2023-05-31T01:26:18.488Z,20.17
2023-05-31T01:28:50.538Z,19.92
2023-05-31T01:31:21.296Z,21.63
2023-05-31T01:33:49.728Z,20.35
2023-05-31T01:36:16.480Z,21.38
2023-05-31T01:38:42.939Z,21.60
2023-05-31T01:41:13.263Z,22.00
2023-05-31T01:46:10.745Z,22.30
2023-05-31T01:48:38.175Z,23.92
2023-05-31T01:51:09.888Z,23.88
2023-05-31T01:53:36.588Z,25.17
2023-05-31T01:56:06.465Z,25.70
2023-05-31T01:58:35.612Z,26.85
2023-05-31T02:01:02.695Z,26.20
2023-05-31T02:03:29.813Z,27.67
2023-05-31T02:06:00.582Z,30.75
2023-05-31T02:08:28.000Z,29.40
2023-05-31T02:10:55.183Z,28.02
2023-05-31T02:13:26.823Z,27.38
2023-05-31T02:15:53.571Z,28.52
2023-05-31T02:18:20.057Z,28.52
2023-05-31T02:20:46.740Z,28.08
2023-05-31T02:23:13.317Z,27.77
2023-05-31T02:25:39.757Z,28.70
2023-05-31T02:28:06.282Z,29.27
2023-05-31T02:30:34.132Z,31.08
2023-05-31T02:33:03.354Z,31.65
2023-05-31T02:35:29.882Z,32.15
2023-05-31T02:37:56.509Z,31.40
2023-05-31T02:40:23.139Z,30.90
2023-05-31T02:42:49.615Z,32.20
2023-05-31T02:45:16.335Z,32.33
2023-05-31T02:47:42.982Z,32.92
2023-05-31T02:50:11.274Z,32.50
2023-05-31T02:52:38.499Z,31.75
2023-05-31T02:55:06.472Z,33.20
2023-05-31T02:57:32.986Z,32.38
2023-05-31T03:00:09.837Z,33.40
2023-05-31T03:02:36.417Z,33.92
2023-05-31T03:05:05.237Z,33.58
2023-05-31T03:07:31.768Z,34.53
2023-05-31T03:09:58.307Z,34.28
2023-05-31T03:12:24.800Z,33.90
2023-05-31T03:14:51.324Z,35.03
2023-05-31T03:17:17.817Z,36.03
2023-05-31T03:19:44.306Z,34.00
2023-05-31T03:22:10.770Z,34.75
2023-05-31T03:24:37.253Z,35.47
2023-05-31T03:27:04.101Z,34.20
2023-05-31T03:29:30.985Z,34.63
2023-05-31T03:31:57.501Z,34.50
2023-05-31T03:34:24.120Z,34.85
2023-05-31T03:36:51.912Z,35.35
2023-05-31T03:39:18.349Z,36.47
2023-05-31T03:41:44.787Z,35.97
2023-05-31T03:44:11.389Z,36.50
2023-05-31T03:46:37.819Z,35.58
2023-05-31T03:49:06.573Z,36.03
2023-05-31T03:51:33.115Z,35.47
2023-05-31T03:53:59.613Z,36.08
2023-05-31T03:56:26.358Z,35.25
2023-05-31T03:58:52.873Z,34.65
2023-05-31T04:01:19.318Z,35.72
2023-05-31T04:03:46.359Z,36.35
2023-05-31T04:06:13.023Z,35.55
2023-05-31T04:08:39.486Z,36.42
2023-05-31T04:11:05.993Z,36.45
2023-05-31T04:13:32.412Z,35.60
2023-05-31T04:15:59.584Z,36.33
2023-05-31T04:18:26.110Z,36.85
2023-05-31T04:20:52.881Z,35.17
2023-05-31T04:23:19.423Z,36.67
2023-05-31T04:25:46.172Z,36.22
2023-05-31T04:28:13.836Z,36.72
2023-05-31T04:30:40.526Z,38.40
2023-05-31T04:33:07.324Z,36.80
2023-05-31T04:35:34.863Z,38.10
2023-05-31T04:38:03.612Z,37.28
2023-05-31T04:40:32.988Z,37.83
2023-05-31T04:43:01.770Z,36.97
2023-05-31T04:45:28.466Z,36.90
2023-05-31T04:47:56.263Z,36.88
2023-05-31T04:50:22.846Z,36.67
2023-05-31T04:52:49.330Z,38.22
2023-05-31T04:55:15.879Z,37.15
2023-05-31T04:57:42.361Z,36.15
2023-05-31T05:00:11.123Z,37.03
2023-05-31T05:02:37.724Z,36.38
2023-05-31T05:05:08.190Z,36.95
2023-05-31T05:07:34.638Z,36.60
2023-05-31T05:10:01.733Z,35.83
2023-05-31T05:12:28.176Z,36.28
2023-05-31T05:14:54.582Z,35.65
2023-05-31T05:17:21.639Z,35.47
2023-05-31T05:19:48.115Z,34.60
2023-05-31T05:22:14.725Z,33.75
2023-05-31T05:24:41.248Z,32.80
2023-05-31T05:27:07.908Z,31.70
2023-05-31T05:29:34.481Z,29.73
2023-05-31T05:32:01.109Z,29.88
2023-05-31T05:34:27.828Z,28.63
2023-05-31T05:36:54.684Z,28.52
2023-05-31T05:39:21.704Z,26.15
2023-05-31T05:41:48.129Z,24.48
2023-05-31T05:44:14.623Z,24.98
2023-05-31T05:46:41.170Z,24.30
2023-05-31T05:49:07.625Z,22.30
2023-05-31T05:51:35.241Z,21.88
2023-05-31T05:54:01.705Z,22.35
2023-05-31T05:56:28.239Z,21.20
2023-05-31T05:58:54.689Z,21.83
2023-05-31T06:01:21.478Z,21.30
2023-05-31T06:03:51.609Z,20.85
2023-05-31T06:08:46.141Z,19.98
2023-05-31T06:11:13.034Z,19.35
2023-05-31T06:13:39.573Z,18.30
2023-05-31T06:16:06.490Z,17.42
2023-05-31T06:18:32.998Z,16.65
2023-05-31T06:21:00.049Z,17.13
2023-05-31T06:23:26.956Z,17.23
2023-05-31T06:25:53.647Z,16.42
2023-05-31T06:28:20.282Z,16.63
2023-05-31T06:30:47.114Z,16.33
2023-05-31T06:33:13.925Z,14.95
2023-05-31T06:35:43.731Z,15.23
2023-05-31T06:38:15.956Z,15.15
2023-05-31T06:40:44.150Z,14.43
2023-05-31T06:43:13.777Z,14.60
2023-05-31T06:45:42.995Z,14.10
2023-05-31T06:48:10.432Z,13.82
2023-05-31T06:50:37.356Z,14.23
2023-05-31T06:53:04.064Z,14.07
2023-05-31T06:55:30.743Z,12.98
2023-05-31T06:57:57.326Z,13.90
2023-05-31T07:00:23.792Z,12.73
2023-05-31T07:02:50.719Z,11.70
2023-05-31T07:05:17.184Z,11.93
2023-05-31T07:07:43.632Z,11.70
2023-05-31T07:10:10.453Z,12.13
2023-05-31T07:12:36.932Z,11.65
2023-05-31T07:15:03.607Z,11.88
2023-05-31T07:17:30.666Z,11.73
2023-05-31T07:19:57.656Z,12.82
2023-05-31T07:22:24.178Z,13.15
2023-05-31T07:24:50.939Z,14.18
2023-05-31T07:27:17.541Z,13.63
2023-05-31T07:29:44.018Z,12.63
2023-05-31T07:32:10.590Z,12.48
2023-05-31T07:34:37.202Z,12.80
2023-05-31T07:37:03.705Z,12.10
2023-05-31T07:39:30.571Z,12.25
2023-05-31T07:41:59.551Z,12.00
2023-05-31T07:44:26.319Z,12.00
2023-05-31T07:46:52.831Z,12.32
2023-05-31T07:49:19.417Z,12.48
2023-05-31T07:51:46.141Z,11.40
2023-05-31T07:54:12.720Z,11.05
2023-05-31T07:56:39.586Z,12.05
2023-05-31T07:59:07.737Z,12.10
2023-05-31T08:01:34.882Z,11.10
2023-05-31T08:04:09.162Z,11.00
2023-05-31T08:06:36.070Z,11.10
2023-05-31T08:09:02.917Z,11.05
2023-05-31T08:11:29.631Z,11.45
2023-05-31T08:13:56.110Z,11.98
2023-05-31T08:16:22.905Z,11.57
2023-05-31T08:18:53.140Z,11.55
2023-05-31T08:21:19.727Z,11.03
2023-05-31T08:23:46.228Z,10.63
2023-05-31T08:26:12.937Z,10.82
2023-05-31T08:28:39.453Z,11.13
2023-05-31T08:31:06.119Z,11.15
2023-05-31T08:33:33.460Z,11.30
2023-05-31T08:36:00.953Z,11.38
2023-05-31T08:38:28.833Z,12.48
2023-05-31T08:41:02.066Z,11.18
2023-05-31T08:43:29.925Z,13.20
2023-05-31T08:45:56.861Z,13.45
2023-05-31T08:48:36.509Z,15.38
2023-05-31T08:51:06.302Z,14.73
2023-05-31T08:53:34.650Z,15.13
2023-05-31T08:56:05.646Z,15.18
2023-05-31T08:58:32.287Z,14.75
2023-05-31T09:00:59.870Z,15.82
2023-05-31T09:03:27.686Z,15.75
2023-05-31T09:05:56.516Z,14.65
2023-05-31T09:08:23.635Z,14.73
2023-05-31T09:10:51.081Z,14.55
2023-05-31T09:13:17.649Z,15.23
2023-05-31T09:15:48.564Z,14.95
2023-05-31T09:18:26.400Z,15.32
2023-05-31T09:20:54.600Z,14.85
2023-05-31T09:23:21.239Z,14.23
2023-05-31T09:25:48.597Z,14.50
2023-05-31T09:28:17.932Z,13.48
2023-05-31T09:30:44.734Z,13.40
2023-05-31T09:33:11.963Z,13.80
2023-05-31T09:35:38.556Z,14.10
2023-05-31T09:38:07.482Z,13.48
2023-05-31T09:40:34.786Z,13.53
2023-05-31T09:43:01.809Z,13.45
2023-05-31T09:45:29.622Z,14.50
2023-05-31T09:47:56.564Z,13.23
2023-05-31T09:50:24.341Z,13.13
2023-05-31T09:52:57.093Z,13.55
2023-05-31T09:55:23.801Z,13.15
2023-05-31T09:57:53.299Z,13.25
2023-05-31T10:00:20.397Z,13.50
2023-05-31T10:02:48.784Z,12.32
2023-05-31T10:05:16.739Z,12.95
2023-05-31T10:07:45.046Z,12.23
2023-05-31T10:10:12.349Z,12.30
2023-05-31T10:13:00.615Z,12.93
2023-05-31T10:15:32.980Z,12.10
2023-05-31T10:18:03.713Z,13.13
2023-05-31T10:20:53.081Z,13.63
2023-05-31T10:23:23.501Z,12.70
2023-05-31T10:26:22.723Z,11.57
2023-05-31T10:29:14.543Z,11.55
2023-05-31T10:31:51.212Z,10.75
2023-05-31T10:34:26.785Z,11.75
2023-05-31T10:36:55.372Z,12.18
2023-05-31T10:39:39.481Z,11.40
2023-05-31T10:42:44.215Z,10.48
2023-05-31T10:45:23.652Z,11.43
2023-05-31T10:48:04.185Z,11.50
2023-05-31T10:50:30.851Z,11.75
2023-05-31T10:53:12.158Z,11.38
2023-05-31T10:55:44.086Z,12.20
2023-05-31T10:58:28.125Z,12.48
2023-05-31T11:00:56.559Z,11.57
2023-05-31T11:03:27.273Z,11.35
2023-05-31T11:05:57.165Z,12.95
2023-05-31T11:10:51.285Z,10.88
2023-05-31T11:13:18.076Z,10.80
2023-05-31T11:15:46.683Z,11.10
2023-05-31T11:18:24.765Z,12.55
2023-05-31T11:20:51.835Z,10.98
2023-05-31T11:23:18.460Z,10.80
2023-05-31T11:25:45.744Z,10.75
2023-05-31T11:28:18.462Z,12.48
2023-05-31T11:30:47.316Z,11.80
2023-05-31T11:33:16.863Z,10.70
2023-05-31T11:35:43.595Z,11.68
2023-05-31T11:38:10.250Z,11.38
2023-05-31T11:40:37.180Z,10.98
2023-05-31T11:43:08.372Z,10.57
2023-05-31T11:45:40.524Z,10.60
2023-05-31T11:48:26.196Z,11.02
2023-05-31T11:50:55.345Z,10.70
2023-05-31T11:53:22.451Z,10.80
2023-05-31T11:55:49.871Z,11.50
2023-05-31T11:58:20.305Z,11.00
2023-05-31T12:00:47.611Z,10.85
2023-05-31T12:03:18.723Z,10.80
2023-05-31T12:05:51.506Z,12.23
2023-05-31T12:08:18.329Z,11.30
2023-05-31T12:10:46.644Z,11.23
2023-05-31T12:13:16.637Z,12.95
2023-05-31T12:15:43.400Z,12.95
2023-05-31T12:18:10.005Z,11.73
2023-05-31T12:20:36.496Z,11.98
2023-05-31T12:23:13.561Z,13.32
2023-05-31T12:25:48.119Z,12.18
2023-05-31T12:28:17.595Z,12.10
2023-05-31T12:30:48.014Z,12.75
2023-05-31T12:33:15.182Z,11.82
2023-05-31T12:35:46.345Z,11.05
2023-05-31T12:38:13.560Z,12.13
2023-05-31T12:40:42.720Z,10.80
2023-05-31T12:43:10.173Z,10.40
2023-05-31T12:45:41.923Z,10.60
2023-05-31T12:48:10.515Z,11.20
2023-05-31T12:50:37.428Z,11.85
2023-05-31T12:53:07.521Z,11.93
2023-05-31T12:55:34.063Z,11.85
2023-05-31T12:58:04.039Z,12.32
2023-05-31T13:00:33.220Z,11.77
2023-05-31T13:02:59.942Z,12.55
2023-05-31T13:05:26.910Z,12.93
2023-05-31T13:07:54.927Z,12.95
2023-05-31T13:10:21.617Z,12.15
2023-05-31T13:12:48.075Z,11.82
2023-05-31T13:15:14.639Z,11.25
2023-05-31T13:17:41.150Z,11.68
2023-05-31T13:20:12.598Z,11.75
2023-05-31T13:22:40.085Z,12.27
2023-05-31T13:25:08.017Z,12.98
2023-05-31T13:27:34.707Z,12.68
2023-05-31T13:30:01.343Z,13.13
2023-05-31T13:32:29.090Z,12.55
2023-05-31T13:34:57.558Z,12.35
2023-05-31T13:37:25.877Z,10.32
2023-05-31T13:39:52.669Z,11.45
2023-05-31T13:42:19.455Z,12.18
2023-05-31T13:44:46.026Z,12.70
2023-05-31T13:47:12.494Z,13.18
2023-05-31T13:49:39.545Z,13.15
2023-05-31T13:52:08.831Z,12.32
2023-05-31T13:54:35.643Z,13.40
2023-05-31T13:57:02.524Z,12.95
2023-05-31T13:59:29.191Z,12.48
2023-05-31T14:01:55.792Z,13.25
2023-05-31T14:04:24.187Z,13.80
2023-05-31T14:06:51.406Z,10.88
2023-05-31T14:09:18.492Z,13.57
2023-05-31T14:11:45.153Z,11.07
2023-05-31T14:14:11.718Z,11.48
2023-05-31T14:16:38.260Z,11.27
2023-05-31T14:19:05.217Z,11.05
2023-05-31T14:21:33.400Z,11.25
2023-05-31T14:24:00.242Z,11.85
2023-05-31T14:26:28.207Z,11.55
2023-05-31T14:28:54.634Z,12.70
2023-05-31T14:31:21.445Z,11.88
2023-05-31T14:33:47.978Z,11.85
2023-05-31T14:36:14.972Z,12.07
2023-05-31T14:38:42.072Z,12.05
2023-05-31T14:41:08.562Z,12.05
2023-05-31T14:43:34.991Z,11.10
2023-05-31T14:46:01.509Z,11.93
2023-05-31T14:48:28.079Z,11.60
2023-05-31T14:50:54.515Z,10.60
2023-05-31T14:53:21.148Z,11.80
2023-05-31T14:55:47.634Z,12.27
2023-05-31T14:58:14.318Z,12.23
2023-05-31T15:00:40.797Z,12.80
2023-05-31T15:03:07.396Z,11.98
2023-05-31T15:05:33.994Z,12.38
2023-05-31T15:08:00.666Z,11.93
2023-05-31T15:10:27.595Z,11.93
2023-05-31T15:12:54.533Z,11.55
2023-05-31T15:15:21.229Z,11.85
2023-05-31T15:17:47.886Z,12.32
2023-05-31T15:20:14.412Z,12.30
2023-05-31T15:22:41.051Z,12.32
2023-05-31T15:25:07.970Z,12.40
2023-05-31T15:27:34.772Z,12.10
2023-05-31T15:30:01.416Z,11.73
2023-05-31T15:32:28.073Z,12.57
2023-05-31T15:34:54.579Z,12.55
2023-05-31T15:37:21.056Z,14.52
2023-05-31T15:39:47.664Z,16.15
2023-05-31T15:42:14.126Z,15.23
2023-05-31T15:44:40.738Z,12.80
2023-05-31T15:47:07.902Z,13.32
2023-05-31T15:49:37.121Z,12.45
2023-05-31T15:52:03.761Z,13.45
2023-05-31T15:54:30.296Z,12.63
2023-05-31T15:56:56.817Z,12.88
2023-05-31T15:59:23.326Z,13.13
2023-05-31T16:01:49.896Z,12.02
2023-05-31T16:04:16.525Z,12.60
2023-05-31T16:06:43.075Z,12.50
2023-05-31T16:09:09.843Z,12.07
2023-05-31T16:11:36.686Z,12.10
2023-05-31T16:14:03.304Z,12.27
2023-05-31T16:16:29.875Z,13.52
2023-05-31T16:18:56.539Z,12.23
2023-05-31T16:21:23.065Z,12.40
2023-05-31T16:23:49.565Z,12.52
2023-05-31T16:26:16.065Z,12.88
2023-05-31T16:28:42.569Z,12.45
2023-05-31T16:31:14.184Z,12.80
2023-05-31T16:33:41.592Z,12.30
2023-05-31T16:36:08.171Z,12.20
2023-05-31T16:38:34.740Z,12.10
2023-05-31T16:41:01.778Z,12.75
2023-05-31T16:43:28.646Z,12.80
2023-05-31T16:45:55.375Z,13.13
2023-05-31T16:48:22.042Z,13.93
2023-05-31T16:50:50.376Z,13.13
2023-05-31T16:53:18.070Z,13.38
2023-05-31T16:55:44.696Z,12.90
2023-05-31T16:58:11.194Z,14.10
2023-05-31T17:00:37.843Z,12.68
2023-05-31T17:03:04.850Z,12.88
2023-05-31T17:05:31.527Z,12.48
2023-05-31T17:07:58.059Z,12.82
2023-05-31T17:10:24.718Z,13.18
2023-05-31T17:12:51.298Z,12.45
2023-05-31T17:15:17.937Z,13.93
2023-05-31T17:17:44.731Z,14.43
2023-05-31T17:20:12.291Z,14.05
2023-05-31T17:22:39.385Z,14.02
2023-05-31T17:25:06.470Z,14.25
2023-05-31T17:27:34.384Z,15.10
2023-05-31T17:30:01.268Z,15.27
2023-05-31T17:32:28.017Z,14.50
2023-05-31T17:34:54.535Z,14.75
2023-05-31T17:37:21.021Z,15.00
2023-05-31T17:39:47.438Z,14.57
2023-05-31T17:42:13.976Z,14.60
2023-05-31T17:44:40.532Z,14.55
2023-05-31T17:47:07.475Z,14.00
2023-05-31T17:49:33.958Z,14.73
2023-05-31T17:52:00.451Z,13.82
2023-05-31T17:54:26.868Z,14.40
2023-05-31T17:56:53.413Z,13.77
2023-05-31T17:59:22.253Z,13.45
2023-05-31T18:01:48.849Z,14.15
2023-05-31T18:04:15.506Z,14.20
2023-05-31T18:06:42.295Z,14.43
2023-05-31T18:09:09.298Z,13.60
2023-05-31T18:11:36.600Z,14.13
2023-05-31T18:14:03.387Z,14.35
2023-05-31T18:16:31.658Z,14.65
2023-05-31T18:18:58.427Z,13.90
2023-05-31T18:21:25.124Z,13.88
2023-05-31T18:23:52.043Z,13.90
2023-05-31T18:26:19.791Z,13.63
2023-05-31T18:28:48.635Z,13.77
2023-05-31T18:31:15.435Z,13.00
2023-05-31T18:33:42.016Z,14.15
2023-05-31T18:36:08.565Z,13.77
2023-05-31T18:38:47.463Z,14.02
2023-05-31T18:41:14.983Z,13.65
2023-05-31T18:43:42.065Z,15.52
2023-05-31T18:46:08.577Z,14.07
2023-05-31T18:48:37.400Z,14.60
2023-05-31T18:51:05.599Z,15.15
2023-05-31T18:53:33.617Z,15.52
2023-05-31T18:56:00.933Z,14.82
2023-05-31T18:58:27.940Z,14.35
2023-05-31T19:00:54.665Z,15.15
2023-05-31T19:03:21.321Z,14.60
2023-05-31T19:05:48.079Z,14.85
2023-05-31T19:08:14.580Z,15.07
2023-05-31T19:10:41.194Z,14.38
2023-05-31T19:13:09.613Z,13.73
2023-05-31T19:15:36.104Z,14.35
2023-05-31T19:18:16.770Z,15.02
2023-05-31T19:20:48.612Z,15.25
2023-05-31T19:23:16.915Z,15.07
2023-05-31T19:25:43.733Z,15.15
2023-05-31T19:28:10.547Z,14.93
2023-05-31T19:30:37.821Z,14.98
2023-05-31T19:33:04.516Z,14.65
2023-05-31T19:35:31.146Z,14.48
2023-05-31T19:37:57.772Z,14.32
2023-05-31T19:40:24.280Z,14.32
2023-05-31T19:42:51.039Z,14.23
2023-05-31T19:45:19.190Z,15.10
2023-05-31T19:47:47.505Z,13.63
2023-05-31T19:50:14.056Z,14.63
2023-05-31T19:52:40.688Z,14.73
2023-05-31T19:55:08.680Z,15.02
2023-05-31T19:57:35.422Z,14.57
2023-05-31T20:00:04.163Z,14.73
2023-05-31T20:02:30.694Z,15.23
2023-05-31T20:04:57.171Z,15.27
2023-05-31T20:07:23.767Z,13.48
2023-05-31T20:09:50.431Z,13.95
2023-05-31T20:12:17.380Z,13.70
2023-05-31T20:14:43.908Z,15.00
2023-05-31T20:17:10.912Z,13.13
2023-05-31T20:19:37.503Z,13.18
2023-05-31T20:22:04.205Z,13.90
2023-05-31T20:24:31.525Z,13.68
2023-05-31T20:26:57.938Z,13.10
2023-05-31T20:29:24.454Z,14.93
2023-05-31T20:31:51.011Z,15.20
2023-05-31T20:34:17.525Z,17.02
2023-05-31T20:36:44.071Z,17.27
2023-05-31T20:39:10.753Z,18.13
2023-05-31T20:41:37.439Z,17.60
2023-05-31T20:44:04.148Z,18.60
2023-05-31T20:46:30.808Z,17.92
2023-05-31T20:48:57.709Z,17.02
2023-05-31T20:51:24.158Z,15.02
2023-05-31T20:53:50.675Z,16.23
2023-05-31T20:56:17.706Z,17.10
2023-05-31T20:58:44.660Z,15.82
2023-05-31T21:01:15.101Z,14.70
2023-05-31T21:03:41.807Z,14.63
2023-05-31T21:06:08.480Z,14.73
2023-05-31T21:08:35.051Z,15.35
2023-05-31T21:11:01.906Z,17.88
2023-05-31T21:13:28.350Z,20.30
2023-05-31T21:15:54.877Z,22.67
2023-05-31T21:18:21.373Z,21.25
2023-05-31T21:20:47.846Z,20.70
2023-05-31T21:23:14.854Z,21.88
2023-05-31T21:25:41.425Z,21.95
2023-05-31T21:28:07.904Z,21.50
2023-05-31T21:30:34.362Z,20.00
2023-05-31T21:33:01.068Z,20.33
2023-05-31T21:35:27.635Z,19.65
2023-05-31T21:37:56.845Z,19.95
2023-05-31T21:40:24.442Z,20.55
2023-05-31T21:42:51.400Z,19.85
2023-05-31T21:45:18.020Z,20.02
2023-05-31T21:47:44.671Z,21.10
2023-05-31T21:50:11.369Z,22.00
2023-05-31T21:52:37.904Z,20.40
2023-05-31T21:55:06.432Z,21.13
2023-05-31T21:57:33.011Z,20.85
2023-05-31T22:00:00.459Z,22.10
2023-05-31T22:02:26.905Z,22.23
2023-05-31T22:04:53.798Z,21.80
2023-05-31T22:07:20.563Z,22.35
2023-05-31T22:09:47.217Z,21.40
2023-05-31T22:12:13.640Z,19.42
2023-05-31T22:14:41.052Z,20.55
2023-05-31T22:17:08.379Z,18.85
2023-05-31T22:19:37.991Z,18.70
2023-05-31T22:22:05.922Z,21.40
2023-05-31T22:24:32.504Z,24.25
2023-05-31T22:26:58.962Z,21.23
2023-05-31T22:29:25.581Z,21.42
2023-05-31T22:31:52.425Z,21.80
2023-05-31T22:34:20.060Z,22.35
2023-05-31T22:36:46.884Z,23.50
2023-05-31T22:39:13.721Z,21.25
2023-05-31T22:41:40.321Z,21.98
2023-05-31T22:44:07.882Z,21.58
2023-05-31T22:46:35.362Z,21.98
2023-05-31T22:49:02.060Z,20.58
2023-05-31T22:51:30.261Z,22.30
2023-05-31T22:53:56.938Z,22.65
2023-05-31T22:56:23.415Z,24.20
2023-05-31T22:58:49.922Z,22.25
2023-05-31T23:01:16.404Z,23.25
2023-05-31T23:03:43.190Z,22.25
2023-05-31T23:06:13.337Z,21.48
2023-05-31T23:08:44.360Z,20.88
2023-05-31T23:11:16.173Z,20.25
2023-05-31T23:13:43.214Z,21.58
2023-05-31T23:16:10.029Z,23.35
2023-05-31T23:18:36.625Z,25.23
2023-05-31T23:21:03.814Z,25.35
2023-05-31T23:23:30.461Z,25.05
2023-05-31T23:25:57.069Z,22.27
2023-05-31T23:28:23.508Z,22.27
2023-05-31T23:30:50.004Z,22.45
2023-05-31T23:33:17.415Z,21.80
2023-05-31T23:35:44.631Z,22.45
2023-05-31T23:38:11.453Z,20.75
2023-05-31T23:40:37.946Z,21.85
2023-05-31T23:43:04.427Z,22.98
2023-05-31T23:45:31.208Z,23.52
2023-05-31T23:47:57.866Z,22.77
2023-05-31T23:50:25.942Z,22.35
2023-05-31T23:52:52.581Z,21.73
2023-05-31T23:55:19.070Z,22.00
2023-05-31T23:57:45.512Z,21.77
